createdAt,value
2022-09-05T00:00:03.159Z,96425.28
2022-09-05T00:02:49.539Z,96422.63
2022-09-05T00:05:26.194Z,96416.22
2022-09-05T00:08:02.365Z,96408.16
2022-09-05T00:11:12.775Z,96395.25
2022-09-05T00:13:36.464Z,96418.47
2022-09-05T00:16:30.155Z,96417.69
2022-09-05T00:24:18.693Z,96410.69
2022-09-05T00:24:34.657Z,96403.91
2022-09-05T00:25:28.223Z,96404.66
2022-09-05T00:28:25.131Z,96354.09
2022-09-05T00:31:54.043Z,96408.22
2022-09-05T00:34:18.552Z,96391.19
2022-09-05T00:36:48.546Z,96398.75
2022-09-05T00:39:21.065Z,96404.56
2022-09-05T00:41:50.607Z,96409.09
2022-09-05T00:44:23.491Z,96406.72
2022-09-05T00:46:59.516Z,96414.19
2022-09-05T00:49:37.152Z,96398.00
2022-09-05T00:52:13.041Z,96406.34
2022-09-05T00:55:08.802Z,96399.25
2022-09-05T00:58:12.174Z,96396.97
2022-09-05T01:00:52.961Z,96388.00
2022-09-05T01:03:33.798Z,96402.28
2022-09-05T01:06:18.325Z,96400.97
2022-09-05T01:09:08.197Z,96398.63
2022-09-05T01:11:46.511Z,96372.22
2022-09-05T01:14:28.857Z,96401.38
2022-09-05T01:17:16.057Z,96404.25
2022-09-05T01:20:04.783Z,96410.34
2022-09-05T01:23:10.258Z,96413.00
2022-09-05T01:25:54.889Z,96410.16
2022-09-05T01:29:16.678Z,96417.03
2022-09-05T01:31:28.993Z,96417.97
2022-09-05T01:34:06.769Z,96402.50
2022-09-05T01:36:55.692Z,96405.66
2022-09-05T01:40:15.354Z,96396.13
2022-09-05T01:42:37.990Z,96409.50
2022-09-05T01:45:16.035Z,96421.69
2022-09-05T01:47:52.921Z,96406.44
2022-09-05T01:50:35.573Z,96330.28
2022-09-05T01:53:26.439Z,96411.25
2022-09-05T01:56:10.069Z,96418.50
2022-09-05T01:58:50.533Z,96415.13
2022-09-05T02:01:32.899Z,96420.00
2022-09-05T02:04:23.871Z,96422.50
2022-09-05T02:07:19.424Z,96422.63
2022-09-05T02:10:17.223Z,96426.44
2022-09-05T02:12:54.448Z,96396.28
2022-09-05T02:15:41.941Z,96426.81
2022-09-05T02:18:23.389Z,96425.00
2022-09-05T02:20:57.846Z,96371.16
2022-09-05T02:23:41.581Z,96423.13
2022-09-05T02:26:18.514Z,96435.66
2022-09-05T02:28:53.918Z,96424.66
2022-09-05T02:31:28.343Z,96411.66
2022-09-05T02:34:01.886Z,96397.19
2022-09-05T02:36:40.814Z,96415.13
2022-09-05T02:45:01.726Z,96412.88
2022-09-05T02:45:15.329Z,96399.09
2022-09-05T02:45:31.113Z,96404.19
2022-09-05T02:48:14.829Z,96409.31
2022-09-05T02:57:29.199Z,96421.41
2022-09-05T02:57:34.739Z,96432.66
2022-09-05T02:57:38.557Z,96422.13
2022-09-05T02:59:49.604Z,96425.03
2022-09-05T03:02:27.641Z,96418.00
2022-09-05T03:05:05.420Z,96419.47
2022-09-05T03:08:09.116Z,96423.13
2022-09-05T03:11:05.026Z,96420.06
2022-09-05T03:13:54.386Z,96431.66
2022-09-05T03:17:26.794Z,96427.97
2022-09-05T03:20:38.985Z,96415.19
2022-09-05T03:23:33.182Z,96435.69
2022-09-05T03:26:33.711Z,96435.81
2022-09-05T03:29:30.517Z,96412.16
2022-09-05T03:32:42.106Z,96430.53
2022-09-05T03:35:56.350Z,96430.88
2022-09-05T03:39:02.483Z,96439.13
2022-09-05T03:41:49.263Z,96433.47
2022-09-05T03:44:41.440Z,96410.03
2022-09-05T03:47:22.249Z,96422.41
2022-09-05T03:56:20.281Z,96420.09
2022-09-05T03:57:19.945Z,96400.91
2022-09-05T03:57:28.164Z,96429.59
2022-09-05T04:00:08.656Z,96422.75
2022-09-05T04:08:09.003Z,96426.97
2022-09-05T04:08:16.191Z,96419.34
2022-09-05T04:08:48.925Z,96423.59
2022-09-05T04:11:20.112Z,96424.19
2022-09-05T04:13:52.497Z,96428.41
2022-09-05T04:16:26.325Z,96387.13
2022-09-05T04:18:57.810Z,96408.47
2022-09-05T04:21:30.523Z,96404.28
2022-09-05T04:24:07.205Z,96361.69
2022-09-05T04:27:00.995Z,96417.19
2022-09-05T04:29:42.757Z,96423.88
2022-09-05T04:32:24.866Z,96423.84
2022-09-05T04:35:23.589Z,96423.28
2022-09-05T04:37:58.710Z,96417.47
2022-09-05T04:40:40.109Z,96420.06
2022-09-05T04:43:11.415Z,96420.63
2022-09-05T04:45:42.969Z,96410.16
2022-09-05T04:48:21.350Z,96429.34
2022-09-05T04:51:11.699Z,96437.53
2022-09-05T04:54:00.471Z,96437.75
2022-09-05T04:56:32.238Z,96428.81
2022-09-05T05:01:36.543Z,96444.97
2022-09-05T05:06:02.698Z,96445.53
2022-09-05T05:06:14.276Z,96440.28
2022-09-05T05:07:42.028Z,96462.72
2022-09-05T05:13:55.327Z,96448.22
2022-09-05T05:18:07.470Z,96445.88
2022-09-05T05:18:11.990Z,96459.28
2022-09-05T05:19:18.860Z,96473.03
2022-09-05T05:21:51.822Z,96457.69
2022-09-05T05:24:24.946Z,96468.72
2022-09-05T05:26:59.741Z,96469.19
2022-09-05T05:29:38.171Z,96438.94
2022-09-05T05:32:08.294Z,96470.16
2022-09-05T05:34:42.727Z,96477.81
2022-09-05T05:37:20.084Z,96483.63
2022-09-05T05:39:59.309Z,96483.28
2022-09-05T05:42:27.224Z,96476.34
2022-09-05T05:44:58.429Z,96478.00
2022-09-05T05:47:32.110Z,96469.75
2022-09-05T11:54:57.815Z,96380.56
2022-09-05T11:57:38.718Z,96386.91
2022-09-05T12:00:31.091Z,96391.16
2022-09-05T12:03:58.175Z,96388.38
2022-09-05T12:06:49.535Z,96383.22
2022-09-05T12:09:34.447Z,96362.63
2022-09-05T12:12:38.527Z,96316.72
2022-09-05T12:15:26.272Z,96359.66
2022-09-05T12:18:27.023Z,96367.75
2022-09-05T12:21:17.476Z,96362.34
2022-09-05T12:24:26.364Z,96345.63
2022-09-05T12:27:39.426Z,96349.16
2022-09-05T12:34:35.611Z,96357.25
2022-09-05T12:36:04.558Z,96352.72
2022-09-05T12:41:32.538Z,96359.25
2022-09-05T12:42:09.539Z,96374.50
2022-09-05T12:42:10.927Z,96371.03
2022-09-05T12:45:09.045Z,96371.44
2022-09-05T12:47:59.540Z,96368.47
2022-09-05T12:50:35.275Z,96370.72
2022-09-05T12:53:08.965Z,96299.88
2022-09-05T12:55:41.567Z,96338.81
2022-09-05T13:02:57.756Z,96340.47
2022-09-05T13:03:06.703Z,96368.47
2022-09-05T13:04:26.589Z,96319.00
2022-09-05T13:07:05.602Z,96342.16
2022-09-05T13:10:04.711Z,96351.00
2022-09-05T13:14:53.958Z,96332.31
2022-09-05T13:15:27.003Z,96322.88
2022-09-05T13:18:02.771Z,96348.63
2022-09-05T13:20:36.776Z,96330.03
2022-09-05T13:23:21.797Z,96311.03
2022-09-05T13:25:58.382Z,96340.59
2022-09-05T13:28:30.297Z,96328.81
2022-09-05T13:33:40.146Z,96321.94
2022-09-05T13:37:59.532Z,96299.75
2022-09-05T13:38:10.026Z,96334.56
2022-09-05T13:39:48.985Z,96343.06
2022-09-05T13:42:20.761Z,96277.03
2022-09-05T13:44:53.894Z,96248.13
2022-09-05T13:47:41.107Z,96292.31
2022-09-05T13:50:23.082Z,96271.25
2022-09-05T13:52:56.571Z,96306.78
2022-09-05T13:55:33.453Z,96283.13
2022-09-05T13:58:07.360Z,96306.84
2022-09-05T14:01:17.504Z,96316.91
2022-09-05T14:07:45.082Z,96294.22
2022-09-05T14:10:43.517Z,96302.97
2022-09-05T14:13:18.842Z,96289.28
2022-09-05T14:15:53.164Z,96224.97
2022-09-05T14:18:24.119Z,96287.56
2022-09-05T14:21:15.724Z,96244.47
2022-09-05T14:23:53.507Z,96264.03
2022-09-05T14:26:28.092Z,96253.31
2022-09-05T14:29:05.973Z,96270.72
2022-09-05T14:37:39.989Z,96273.31
2022-09-05T14:37:49.417Z,96288.34
2022-09-05T14:38:14.657Z,96262.34
2022-09-05T14:41:07.422Z,96279.38
2022-09-05T14:44:11.081Z,96276.25
2022-09-05T14:47:05.008Z,96255.94
2022-09-05T14:50:07.167Z,96289.19
2022-09-05T14:52:43.505Z,96282.13
2022-09-05T15:02:44.208Z,96288.75
2022-09-05T15:02:57.692Z,96280.25
2022-09-05T15:06:34.495Z,96230.69
2022-09-05T15:12:18.206Z,96248.34
2022-09-05T15:12:23.001Z,96262.53
2022-09-05T15:14:52.338Z,96260.75
2022-09-05T15:17:24.226Z,96187.63
2022-09-05T15:20:06.638Z,96260.09
2022-09-05T15:22:37.434Z,96268.59
2022-09-05T15:25:18.106Z,96248.22
2022-09-05T15:27:46.603Z,96243.41
2022-09-05T15:30:21.626Z,96263.38
2022-09-05T15:32:50.809Z,96256.84
2022-09-05T15:35:36.563Z,96255.25
2022-09-05T15:38:55.247Z,96249.59
2022-09-05T15:41:25.632Z,96235.63
2022-09-05T15:44:03.279Z,96228.78
2022-09-05T15:46:51.312Z,96239.38
2022-09-05T15:49:28.270Z,96221.75
2022-09-05T15:51:58.255Z,96226.81
2022-09-05T15:54:37.684Z,96241.91
2022-09-05T15:57:15.281Z,96221.31
2022-09-05T15:59:48.155Z,96239.16
2022-09-05T16:02:21.706Z,96239.94
2022-09-05T16:08:21.758Z,96212.31
2022-09-05T16:10:40.811Z,96237.94
2022-09-05T16:11:18.726Z,96225.78
2022-09-05T16:13:39.691Z,96153.75
2022-09-05T16:23:28.821Z,96218.34
2022-09-05T16:23:28.979Z,96239.25
2022-09-05T16:23:30.083Z,96171.56
2022-09-05T16:24:59.506Z,96204.44
2022-09-05T16:27:49.739Z,96210.97
2022-09-05T16:30:22.982Z,96221.41
2022-09-05T16:32:55.007Z,96175.69
2022-09-05T16:35:26.692Z,96175.03
2022-09-05T16:38:02.100Z,96242.72
2022-09-05T16:40:32.591Z,96194.84
2022-09-05T16:43:10.033Z,96213.06
2022-09-05T16:45:45.576Z,96225.91
2022-09-05T16:48:28.094Z,96218.38
2022-09-05T16:51:15.194Z,96140.53
2022-09-05T16:53:57.976Z,96210.63
2022-09-05T16:56:31.749Z,96225.31
2022-09-05T16:59:03.824Z,96213.56
2022-09-05T17:02:05.691Z,96202.31
2022-09-05T17:05:03.099Z,96226.03
2022-09-05T17:07:51.664Z,96233.97
2022-09-05T17:10:24.235Z,96226.47
2022-09-05T17:12:52.523Z,96223.91
2022-09-05T17:15:23.549Z,96189.91
2022-09-05T17:18:21.558Z,96195.66
2022-09-05T17:20:49.505Z,96203.16
2022-09-05T17:27:08.330Z,96217.88
2022-09-05T17:29:27.747Z,96198.03
2022-09-05T17:29:42.214Z,96220.47
2022-09-05T17:32:00.166Z,96221.47
2022-09-05T17:34:46.722Z,96204.00
2022-09-05T17:37:42.852Z,96227.06
2022-09-05T17:40:37.982Z,96187.00
2022-09-05T17:43:10.863Z,96160.75
2022-09-05T17:45:53.257Z,96208.59
2022-09-05T17:49:16.192Z,96211.09
2022-09-05T17:52:20.573Z,96227.25
2022-09-05T17:54:52.222Z,96223.09
2022-09-05T17:57:41.070Z,96227.25
2022-09-05T18:00:47.278Z,96222.28
2022-09-05T18:04:17.024Z,96223.19
2022-09-05T18:07:00.494Z,96226.94
2022-09-05T18:10:12.938Z,96235.22
2022-09-05T18:13:14.182Z,96236.25
2022-09-05T18:16:11.996Z,96236.72
2022-09-05T18:19:32.159Z,96245.66
2022-09-05T18:21:48.457Z,96225.16
2022-09-05T18:24:24.730Z,96241.13
2022-09-05T18:27:43.918Z,96247.50
2022-09-05T18:30:07.926Z,96239.91
2022-09-05T18:32:42.027Z,96251.63
2022-09-05T18:35:32.437Z,96251.19
2022-09-05T18:38:51.641Z,96249.06
2022-09-05T18:41:23.156Z,96240.59
2022-09-05T18:44:13.851Z,96235.19
2022-09-05T18:46:49.130Z,96227.97
2022-09-05T18:50:25.090Z,96249.72
2022-09-05T18:52:23.345Z,96243.69
2022-09-05T18:56:09.147Z,96230.72
2022-09-05T18:57:51.777Z,96243.34
2022-09-05T19:00:43.933Z,96238.53
2022-09-05T19:03:24.967Z,96217.34
2022-09-05T19:06:00.555Z,96236.97
2022-09-05T19:08:48.708Z,96235.84
2022-09-05T19:11:28.932Z,96233.13
2022-09-05T19:14:25.776Z,96238.94
2022-09-05T19:16:49.652Z,96233.13
2022-09-05T19:19:24.768Z,96239.16
2022-09-05T19:22:10.419Z,96236.03
2022-09-05T19:24:45.629Z,96247.06
2022-09-05T19:29:00.035Z,96245.03
2022-09-05T19:36:48.762Z,96240.53
2022-09-05T19:36:51.696Z,96228.25
2022-09-05T19:37:22.779Z,96242.50
2022-09-05T19:38:42.119Z,96236.78
2022-09-05T19:47:26.966Z,96219.97
2022-09-05T19:47:38.546Z,96241.25
2022-09-05T19:47:49.802Z,96237.41
2022-09-05T19:50:11.870Z,96242.16
2022-09-05T19:52:41.276Z,96234.16
2022-09-05T19:55:21.878Z,96230.22
2022-09-05T19:57:52.733Z,96196.00
2022-09-05T20:00:42.485Z,96232.53
2022-09-05T20:03:23.541Z,96221.00
2022-09-05T20:05:52.013Z,96224.75
2022-09-05T20:08:33.677Z,96218.50
2022-09-05T20:11:02.475Z,96214.34
2022-09-05T20:13:30.160Z,96229.19
2022-09-05T20:16:01.235Z,96231.41
2022-09-05T20:18:44.044Z,96213.09
2022-09-05T20:21:13.875Z,96212.94
2022-09-05T20:23:49.139Z,96225.78
2022-09-05T20:26:18.402Z,96233.56
2022-09-05T20:28:52.728Z,96232.31
2022-09-05T20:31:28.294Z,96182.31
2022-09-05T20:34:27.548Z,96220.16
2022-09-05T20:43:14.456Z,96227.72
2022-09-05T20:43:29.407Z,96212.34
2022-09-05T20:43:29.713Z,96216.59
2022-09-05T20:45:46.276Z,96223.09
2022-09-05T20:54:08.194Z,96215.88
2022-09-05T20:54:19.246Z,96201.13
2022-09-05T20:54:31.784Z,96205.84
2022-09-05T20:56:57.802Z,96213.81
2022-09-05T20:59:31.816Z,96216.22
2022-09-05T21:02:01.475Z,96209.78
2022-09-05T21:04:32.994Z,96215.78
2022-09-05T21:07:13.304Z,96210.13
2022-09-05T21:09:56.080Z,96195.88
2022-09-05T21:12:28.436Z,96192.75
2022-09-05T21:15:28.359Z,96203.59
2022-09-05T21:18:03.497Z,96191.06
2022-09-05T21:20:33.196Z,96205.94
2022-09-05T21:23:00.985Z,96209.88
2022-09-05T21:25:43.786Z,96202.31
2022-09-05T21:28:36.636Z,96167.59
2022-09-05T21:31:10.592Z,96207.53
2022-09-05T21:33:45.880Z,96213.66
2022-09-05T21:36:15.926Z,96214.94
2022-09-05T21:38:44.467Z,96215.84
2022-09-05T21:41:14.398Z,96170.94
2022-09-05T21:47:37.836Z,96210.56
2022-09-05T21:47:47.917Z,96210.59
2022-09-05T21:49:23.267Z,96210.44
2022-09-05T21:51:51.780Z,96206.84
2022-09-05T21:57:16.891Z,96205.44
2022-09-05T21:59:19.176Z,96210.94
2022-09-05T22:00:10.953Z,96190.13
2022-09-05T22:02:49.623Z,96187.91
2022-09-05T22:05:17.849Z,96200.59
2022-09-05T22:07:45.582Z,96197.16
2022-09-05T22:10:13.260Z,96195.91
2022-09-05T22:12:41.004Z,96198.13
2022-09-05T22:15:28.547Z,96189.31
2022-09-05T22:18:16.648Z,96130.41
2022-09-05T22:20:51.795Z,96193.06
2022-09-05T22:23:39.459Z,96200.16
2022-09-05T22:26:07.736Z,96192.13
2022-09-05T22:28:38.802Z,96207.19
2022-09-05T22:31:08.663Z,96207.97
2022-09-05T22:33:36.569Z,96202.00
2022-09-05T22:36:04.328Z,96196.69
2022-09-05T22:38:32.534Z,96199.19
2022-09-05T22:41:00.284Z,96193.72
2022-09-05T22:43:28.147Z,96171.00
2022-09-05T22:45:56.519Z,96193.25
2022-09-05T22:48:25.664Z,96190.75
2022-09-05T22:50:53.430Z,96203.59
2022-09-05T22:53:21.330Z,96186.19
2022-09-05T22:55:57.406Z,96183.06
2022-09-05T22:58:25.334Z,96189.66
2022-09-05T23:00:53.369Z,96148.91
2022-09-05T23:03:21.300Z,96179.47
2022-09-05T23:05:50.324Z,96194.50
2022-09-05T23:08:18.049Z,96197.78
2022-09-05T23:10:45.705Z,96195.28
2022-09-05T23:13:13.572Z,96187.91
2022-09-05T23:15:41.403Z,96166.59
2022-09-05T23:18:09.104Z,96182.44
2022-09-05T23:20:36.805Z,96165.19
2022-09-05T23:23:07.427Z,96188.38
2022-09-05T23:25:36.198Z,96171.78
2022-09-05T23:28:06.645Z,96176.59
2022-09-05T23:30:34.615Z,96170.50
2022-09-05T23:33:02.300Z,96173.81
2022-09-05T23:35:30.391Z,96176.13
2022-09-05T23:37:58.045Z,96157.31
2022-09-05T23:40:27.216Z,96163.59
2022-09-05T23:42:56.537Z,96172.69
2022-09-05T23:45:24.890Z,96156.22
2022-09-05T23:47:52.820Z,96150.59
